Time;durP1;ratioP1;P1;durP2;ratioP2;P2;SDS_P1;SDS_P2;PMS_P1;PMS_P2;Temp;Humidity;BMP_temperature;BMP_pressure;BME280_temperature;BME280_humidity;BME280_pressure;Samples;Min_cycle;Max_cycle;Signal;HPM_P1;HPM_P2
2021/06/27 00:00:28;;;;;;;8.47;7.67;;;17.40;99.90;;;;;;4994502;28;20397;-75
2021/06/27 00:02:54;;;;;;;6.97;6.37;;;17.40;99.90;;;;;;4992988;28;20422;-75
2021/06/27 00:05:22;;;;;;;8.13;7.27;;;17.30;99.90;;;;;;4994287;28;20445;-76
2021/06/27 00:07:50;;;;;;;7.33;6.63;;;17.30;99.90;;;;;;4994233;28;20402;-75
2021/06/27 00:10:20;;;;;;;7.60;6.90;;;17.20;99.90;;;;;;4994406;28;20454;-75
2021/06/27 00:12:46;;;;;;;10.07;6.90;;;17.20;99.90;;;;;;4993894;28;20506;-74
2021/06/27 00:15:19;;;;;;;10.70;7.10;;;17.10;99.90;;;;;;4994078;28;20888;-75
2021/06/27 00:17:47;;;;;;;7.57;6.87;;;17.10;99.90;;;;;;4994093;28;20423;-75
2021/06/27 00:20:21;;;;;;;8.33;7.30;;;17.10;99.90;;;;;;4993938;28;20404;-76
2021/06/27 00:22:46;;;;;;;8.70;7.20;;;17.10;99.90;;;;;;4993774;28;20374;-75
2021/06/27 00:25:15;;;;;;;7.00;6.33;;;17.00;99.90;;;;;;4994094;28;20997;-76
2021/06/27 00:27:44;;;;;;;7.97;7.17;;;17.00;99.90;;;;;;4993937;28;20172;-76
2021/06/27 00:30:10;;;;;;;10.23;7.80;;;17.00;99.90;;;;;;4993883;28;20448;-76
2021/06/27 00:32:37;;;;;;;7.70;7.00;;;17.00;99.90;;;;;;4992711;28;20442;-77
2021/06/27 00:35:08;;;;;;;9.83;7.50;;;16.90;99.90;;;;;;4993717;28;20536;-76
2021/06/27 00:37:34;;;;;;;9.17;8.00;;;16.90;99.90;;;;;;4993878;28;20891;-77
2021/06/27 00:39:59;;;;;;;8.50;7.60;;;16.90;99.90;;;;;;4993878;28;20389;-76
2021/06/27 00:42:25;;;;;;;9.20;8.20;;;16.80;99.90;;;;;;4993715;28;20712;-75
2021/06/27 00:44:51;;;;;;;8.30;7.43;;;16.70;99.90;;;;;;4993240;28;20214;-75
2021/06/27 00:47:32;;;;;;;8.70;6.33;;;16.70;99.90;;;;;;4993835;28;20183;-75
2021/06/27 00:49:57;;;;;;;8.40;7.60;;;16.60;99.90;;;;;;4993770;28;20294;-76
2021/06/27 00:52:23;;;;;;;10.00;7.73;;;16.60;99.90;;;;;;4993828;28;20421;-74
2021/06/27 00:54:49;;;;;;;7.17;6.47;;;16.50;99.90;;;;;;4993346;28;20567;-74
2021/06/27 00:57:15;;;;;;;9.13;7.83;;;16.50;99.90;;;;;;4993985;28;20492;-74
2021/06/27 00:59:41;;;;;;;9.60;7.27;;;16.30;99.90;;;;;;4992749;28;20305;-75
2021/06/27 01:02:07;;;;;;;9.43;7.27;;;16.30;99.90;;;;;;4993747;28;20266;-74
2021/06/27 01:04:32;;;;;;;8.50;7.60;;;16.20;99.90;;;;;;4992011;28;20460;-75
2021/06/27 01:06:58;;;;;;;8.63;7.83;;;16.20;99.90;;;;;;4993551;28;20176;-75
2021/06/27 01:09:23;;;;;;;8.50;7.73;;;16.20;99.90;;;;;;4993612;28;20207;-75
2021/06/27 01:11:49;;;;;;;8.90;8.00;;;16.10;99.90;;;;;;4993775;28;20219;-75
2021/06/27 01:14:15;;;;;;;11.93;8.47;;;16.10;99.90;;;;;;4993121;28;20562;-76
2021/06/27 01:16:41;;;;;;;9.93;8.33;;;16.10;99.90;;;;;;4993509;28;20187;-76
2021/06/27 01:19:07;;;;;;;9.10;7.60;;;16.10;99.90;;;;;;4993375;28;20180;-74
2021/06/27 01:21:35;;;;;;;13.00;9.07;;;16.10;99.90;;;;;;4993598;28;20441;-75
2021/06/27 01:24:02;;;;;;;9.73;8.43;;;16.10;99.90;;;;;;4993172;28;20973;-74
2021/06/27 01:26:28;;;;;;;10.07;9.03;;;16.00;99.90;;;;;;4993632;28;20477;-74
2021/06/27 01:28:54;;;;;;;10.27;8.20;;;16.00;99.90;;;;;;4993264;28;20385;-75
2021/06/27 01:31:20;;;;;;;9.97;8.80;;;16.00;99.90;;;;;;4993343;28;20201;-74
2021/06/27 01:33:47;;;;;;;10.57;8.73;;;15.90;99.90;;;;;;4993136;28;20914;-75
2021/06/27 01:36:13;;;;;;;13.07;8.97;;;15.90;99.90;;;;;;4993491;28;20231;-76
2021/06/27 01:38:39;;;;;;;10.07;9.03;;;15.80;99.90;;;;;;4993382;28;20809;-75
2021/06/27 01:41:05;;;;;;;10.07;7.93;;;15.70;99.90;;;;;;4993319;28;20179;-75
2021/06/27 01:43:32;;;;;;;10.17;8.43;;;15.70;99.90;;;;;;4993014;28;20191;-76
2021/06/27 01:46:02;;;;;;;12.33;9.57;;;15.70;99.90;;;;;;4993394;28;20418;-75
2021/06/27 01:48:33;;;;;;;14.77;8.77;;;15.70;99.90;;;;;;4993548;28;20411;-76
2021/06/27 01:51:00;;;;;;;12.37;10.77;;;15.80;99.90;;;;;;4993449;28;20445;-76
2021/06/27 01:53:29;;;;;;;11.57;10.17;;;15.70;99.90;;;;;;4992946;28;20413;-78
2021/06/27 01:56:05;;;;;;;11.10;9.90;;;15.70;99.90;;;;;;4995199;28;20428;-75
2021/06/27 01:58:42;;;;;;;12.30;9.80;;;15.60;99.90;;;;;;4996896;28;20380;-76
2021/06/27 02:01:14;;;;;;;12.17;8.70;;;15.60;99.90;;;;;;4996651;28;20389;-75
2021/06/27 02:03:40;;;;;;;11.27;8.73;;;15.60;99.90;;;;;;4996212;28;20397;-75
2021/06/27 02:06:06;;;;;;;10.03;9.03;;;15.60;99.90;;;;;;4996487;28;20407;-75
2021/06/27 02:08:34;;;;;;;10.57;9.47;;;15.50;99.90;;;;;;4996499;28;20391;-75
2021/06/27 02:11:01;;;;;;;14.67;10.50;;;15.40;99.90;;;;;;4995139;28;20436;-75
2021/06/27 02:13:26;;;;;;;10.10;9.13;;;15.40;99.90;;;;;;4995788;28;20442;-75
2021/06/27 02:15:52;;;;;;;11.30;10.03;;;15.40;99.90;;;;;;4996419;28;20414;-75
2021/06/27 02:18:31;;;;;;;12.47;10.50;;;15.40;99.90;;;;;;4996091;28;20182;-76
2021/06/27 02:20:58;;;;;;;12.90;9.10;;;15.40;99.90;;;;;;4996297;28;20182;-76
2021/06/27 02:23:25;;;;;;;11.30;9.40;;;15.40;99.90;;;;;;4995803;28;20415;-77
2021/06/27 02:25:51;;;;;;;11.27;10.10;;;15.50;99.90;;;;;;4994889;28;20402;-75
2021/06/27 02:28:16;;;;;;;12.57;10.27;;;15.40;99.90;;;;;;4996427;28;20403;-76
2021/06/27 02:30:43;;;;;;;13.03;10.47;;;15.30;99.90;;;;;;4995953;28;20211;-75
2021/06/27 02:33:09;;;;;;;15.67;11.87;;;15.30;99.90;;;;;;4995815;28;20260;-76
2021/06/27 02:35:34;;;;;;;13.83;11.30;;;15.30;99.90;;;;;;4995857;28;20862;-74
2021/06/27 02:38:00;;;;;;;11.50;10.20;;;15.30;99.90;;;;;;4996474;28;20401;-75
2021/06/27 02:40:26;;;;;;;10.80;9.60;;;15.20;99.90;;;;;;4996022;28;20179;-76
2021/06/27 02:42:51;;;;;;;20.37;10.70;;;15.20;99.90;;;;;;4995574;28;20184;-74
2021/06/27 02:45:17;;;;;;;11.73;10.47;;;15.20;99.90;;;;;;4994762;28;20231;-74
2021/06/27 02:47:43;;;;;;;15.63;11.77;;;15.30;99.90;;;;;;4995774;28;20259;-74
2021/06/27 02:50:13;;;;;;;12.27;10.87;;;15.20;99.90;;;;;;4994583;28;20226;-76
2021/06/27 02:52:39;;;;;;;13.93;12.03;;;15.30;99.90;;;;;;4995832;28;20179;-75
2021/06/27 02:55:06;;;;;;;14.83;11.50;;;15.30;99.90;;;;;;4995352;28;20401;-76
2021/06/27 02:57:32;;;;;;;15.37;13.60;;;15.30;99.90;;;;;;4994257;28;20985;-76
2021/06/27 02:59:58;;;;;;;17.37;12.40;;;15.20;99.90;;;;;;4995484;28;20553;-76
2021/06/27 03:02:24;;;;;;;13.10;11.80;;;15.20;99.90;;;;;;4995767;28;20761;-75
2021/06/27 03:04:50;;;;;;;14.00;12.60;;;15.20;99.90;;;;;;4995292;28;20199;-74
2021/06/27 03:07:16;;;;;;;12.97;11.60;;;15.20;99.90;;;;;;4995176;28;20463;-75
2021/06/27 03:09:41;;;;;;;15.33;11.83;;;15.20;99.90;;;;;;4995278;28;20207;-76
2021/06/27 03:12:07;;;;;;;13.00;11.70;;;15.30;99.90;;;;;;4995444;28;20191;-75
2021/06/27 03:14:33;;;;;;;14.67;12.60;;;15.30;99.90;;;;;;4994806;28;20301;-75
2021/06/27 03:16:58;;;;;;;15.70;12.47;;;15.40;99.90;;;;;;4995406;28;20385;-75
2021/06/27 03:19:24;;;;;;;13.87;12.40;;;15.40;99.90;;;;;;4993959;28;20180;-75
2021/06/27 03:21:49;;;;;;;15.13;12.53;;;15.40;99.90;;;;;;4995001;28;20584;-76
2021/06/27 03:24:15;;;;;;;16.00;11.60;;;15.40;99.90;;;;;;4994657;28;20294;-75
2021/06/27 03:26:41;;;;;;;13.27;11.77;;;15.10;99.90;;;;;;4994977;28;20567;-74
2021/06/27 03:29:07;;;;;;;15.67;11.77;;;15.10;99.90;;;;;;4995188;28;20214;-75
2021/06/27 03:31:33;;;;;;;13.80;11.67;;;15.20;99.90;;;;;;4994965;28;20906;-74
2021/06/27 03:33:59;;;;;;;12.83;11.40;;;15.20;99.90;;;;;;4994404;28;20551;-75
2021/06/27 03:36:24;;;;;;;15.10;11.17;;;15.40;99.90;;;;;;4994900;28;20446;-76
2021/06/27 03:41:23;;;;;;;14.53;11.77;;;15.20;99.90;;;;;;4994882;28;20172;-75
2021/06/27 03:43:49;;;;;;;18.17;10.70;;;15.30;99.90;;;;;;4994274;28;20981;-75
2021/06/27 03:46:15;;;;;;;13.23;11.67;;;15.40;99.90;;;;;;4994583;28;20444;-75
2021/06/27 03:48:41;;;;;;;13.80;11.67;;;15.50;99.90;;;;;;4994558;28;20429;-75
2021/06/27 03:51:07;;;;;;;13.90;11.83;;;15.50;99.90;;;;;;4994664;28;21049;-76
2021/06/27 03:53:33;;;;;;;15.70;12.00;;;15.60;99.90;;;;;;4994382;28;20409;-76
2021/06/27 03:55:58;;;;;;;28.93;12.07;;;15.70;99.90;;;;;;4994489;28;20190;-77
2021/06/27 03:58:28;;;;;;;14.07;12.47;;;15.70;99.90;;;;;;4994644;28;20175;-76
2021/06/27 04:00:54;;;;;;;14.97;11.63;;;15.70;99.90;;;;;;4994624;28;20818;-76
2021/06/27 04:03:20;;;;;;;13.73;12.33;;;15.50;99.90;;;;;;4994226;28;20458;-76
2021/06/27 04:05:46;;;;;;;11.67;10.57;;;15.40;99.90;;;;;;4994351;28;20729;-75
2021/06/27 04:08:11;;;;;;;16.73;12.50;;;15.40;99.90;;;;;;4994119;28;20396;-76
2021/06/27 04:10:37;;;;;;;15.03;12.40;;;15.50;99.90;;;;;;4994191;28;20253;-78
2021/06/27 04:13:03;;;;;;;16.30;12.93;;;15.60;99.90;;;;;;4994063;28;20180;-76
2021/06/27 04:15:29;;;;;;;14.70;12.60;;;15.60;99.90;;;;;;4994223;28;20672;-76
2021/06/27 04:17:54;;;;;;;14.63;12.80;;;15.70;99.90;;;;;;4993638;28;20214;-76
2021/06/27 04:20:20;;;;;;;17.03;12.97;;;15.80;99.90;;;;;;4994016;28;20188;-77
2021/06/27 04:22:46;;;;;;;14.00;12.60;;;15.80;99.90;;;;;;4993698;28;20176;-75
2021/06/27 04:25:11;;;;;;;19.13;13.87;;;15.80;99.90;;;;;;4994114;28;20203;-77
2021/06/27 04:27:37;;;;;;;13.17;11.50;;;15.80;99.90;;;;;;4993969;28;20176;-76
2021/06/27 04:30:07;;;;;;;15.23;11.90;;;15.80;99.90;;;;;;4993903;28;20458;-75
2021/06/27 04:32:34;;;;;;;14.70;12.40;;;15.80;99.90;;;;;;4993710;28;20261;-78
2021/06/27 04:34:59;;;;;;;16.60;11.27;;;15.80;99.90;;;;;;4993613;28;20406;-75
2021/06/27 04:37:25;;;;;;;13.60;12.03;;;15.90;99.90;;;;;;4993995;28;20757;-76
2021/06/27 04:39:50;;;;;;;15.40;11.63;;;16.10;99.90;;;;;;4993897;28;20190;-77
2021/06/27 04:42:16;;;;;;;16.13;11.70;;;16.10;99.90;;;;;;4994071;28;20183;-76
2021/06/27 04:44:42;;;;;;;13.73;9.60;;;16.20;99.90;;;;;;4993503;28;20231;-75
2021/06/27 04:47:09;;;;;;;12.03;10.43;;;16.30;99.90;;;;;;4994014;28;20187;-77
2021/06/27 04:49:37;;;;;;;14.40;11.87;;;16.30;99.90;;;;;;4993795;28;20458;-76
2021/06/27 04:52:05;;;;;;;12.63;10.90;;;16.40;99.90;;;;;;4993822;28;20759;-76
2021/06/27 04:54:30;;;;;;;16.67;11.37;;;16.50;99.90;;;;;;4993235;28;20434;-77
2021/06/27 04:56:56;;;;;;;11.67;10.50;;;16.60;99.90;;;;;;4993638;28;20443;-77
2021/06/27 04:59:21;;;;;;;14.43;9.50;;;16.80;99.90;;;;;;4993785;28;20186;-77
2021/06/27 05:01:47;;;;;;;12.27;9.60;;;16.90;99.90;;;;;;4993794;28;20206;-77
2021/06/27 05:04:13;;;;;;;14.60;11.00;;;16.90;99.90;;;;;;4993367;28;20207;-76
2021/06/27 05:06:38;;;;;;;14.07;10.00;;;17.00;99.90;;;;;;4993779;28;20179;-75
2021/06/27 05:09:04;;;;;;;10.07;8.97;;;17.20;99.90;;;;;;4993700;28;20202;-76
2021/06/27 05:11:29;;;;;;;12.60;10.47;;;17.20;99.90;;;;;;4993835;28;20631;-76
2021/06/27 05:13:55;;;;;;;10.00;9.00;;;17.40;99.90;;;;;;4993256;28;20218;-76
2021/06/27 05:16:21;;;;;;;11.10;10.00;;;17.40;99.90;;;;;;4993706;28;20263;-76
2021/06/27 05:18:46;;;;;;;10.60;9.50;;;17.50;99.90;;;;;;4993535;28;20239;-76
2021/06/27 05:21:12;;;;;;;10.93;9.50;;;17.60;99.90;;;;;;4993591;28;20175;-76
2021/06/27 05:23:38;;;;;;;10.60;9.10;;;17.70;99.90;;;;;;4992046;28;20184;-78
2021/06/27 05:26:03;;;;;;;9.73;8.47;;;17.80;99.90;;;;;;4993369;28;20222;-77
2021/06/27 05:28:30;;;;;;;10.73;9.30;;;17.90;99.90;;;;;;4993431;28;20196;-75
2021/06/27 05:30:56;;;;;;;9.20;8.30;;;18.00;99.90;;;;;;4996775;28;20429;-76
2021/06/27 05:33:22;;;;;;;9.70;8.80;;;18.10;99.90;;;;;;4996981;28;20421;-76
2021/06/27 05:35:47;;;;;;;10.93;9.23;;;18.30;99.90;;;;;;4996925;28;20438;-75
2021/06/27 05:38:13;;;;;;;9.90;9.00;;;18.40;99.90;;;;;;4995749;28;20190;-77
2021/06/27 05:40:39;;;;;;;12.47;9.27;;;18.50;99.90;;;;;;4997137;28;20233;-76
2021/06/27 05:43:05;;;;;;;12.07;9.43;;;18.60;99.90;;;;;;4996456;28;20183;-76
2021/06/27 05:45:31;;;;;;;10.73;8.70;;;18.70;99.90;;;;;;4996820;28;20873;-76
2021/06/27 05:47:56;;;;;;;9.27;8.40;;;18.90;99.90;;;;;;4996907;28;20245;-76
2021/06/27 05:50:22;;;;;;;11.60;8.93;;;19.00;99.90;;;;;;4996763;28;20608;-78
2021/06/27 05:52:48;;;;;;;11.73;8.87;;;19.10;99.90;;;;;;4996453;28;20241;-76
2021/06/27 05:55:14;;;;;;;11.20;9.40;;;19.20;99.90;;;;;;4996544;28;20620;-76
2021/06/27 05:57:40;;;;;;;10.93;9.03;;;19.30;99.90;;;;;;4996923;28;20187;-76
2021/06/27 06:00:07;;;;;;;10.90;8.80;;;19.50;99.90;;;;;;4996901;28;20414;-75
2021/06/27 06:02:32;;;;;;;11.07;8.53;;;19.50;99.90;;;;;;4996657;28;20183;-76
2021/06/27 06:04:58;;;;;;;13.77;8.40;;;19.60;99.90;;;;;;4996278;28;20497;-76
2021/06/27 06:07:24;;;;;;;10.03;8.87;;;19.70;99.90;;;;;;4996461;28;20240;-76
2021/06/27 06:09:49;;;;;;;9.10;7.93;;;19.80;99.90;;;;;;4996490;28;20799;-75
2021/06/27 06:12:15;;;;;;;8.53;7.73;;;20.10;99.90;;;;;;4996451;28;20691;-76
2021/06/27 06:14:40;;;;;;;8.43;7.73;;;20.20;99.90;;;;;;4995623;28;20233;-77
2021/06/27 06:17:06;;;;;;;11.23;8.60;;;20.30;99.90;;;;;;4996185;28;20179;-76
2021/06/27 06:19:32;;;;;;;10.40;8.17;;;20.40;99.90;;;;;;4996118;28;20660;-75
2021/06/27 06:21:57;;;;;;;8.77;7.97;;;20.50;99.90;;;;;;4995182;28;20187;-75
2021/06/27 06:24:23;;;;;;;9.70;8.70;;;20.50;99.90;;;;;;4995870;28;20223;-75
2021/06/27 06:26:49;;;;;;;10.17;9.17;;;20.50;99.90;;;;;;4996099;28;20476;-75
2021/06/27 06:29:14;;;;;;;7.73;7.13;;;20.50;99.90;;;;;;4995848;28;20218;-76
2021/06/27 06:31:40;;;;;;;10.23;7.10;;;20.60;99.90;;;;;;4996011;28;20184;-75
2021/06/27 06:34:06;;;;;;;9.60;8.60;;;20.70;99.90;;;;;;4995823;28;20199;-75
2021/06/27 06:36:31;;;;;;;8.87;8.07;;;20.60;99.90;;;;;;4996010;28;20424;-75
2021/06/27 06:38:57;;;;;;;8.90;8.10;;;20.60;99.90;;;;;;4995908;28;20559;-75
2021/06/27 06:41:23;;;;;;;8.57;7.73;;;20.70;99.90;;;;;;4995045;28;20222;-75
2021/06/27 06:43:49;;;;;;;8.50;7.63;;;20.80;99.90;;;;;;4995267;28;20199;-75
2021/06/27 06:46:15;;;;;;;8.13;7.43;;;20.80;99.90;;;;;;4995836;28;20418;-75
2021/06/27 06:48:41;;;;;;;8.40;7.30;;;21.00;99.90;;;;;;4995968;28;20178;-77
2021/06/27 06:51:06;;;;;;;8.67;7.77;;;21.10;99.90;;;;;;4995955;28;21054;-76
2021/06/27 06:53:32;;;;;;;8.17;7.37;;;21.10;99.90;;;;;;4995355;28;20595;-76
2021/06/27 06:55:57;;;;;;;8.10;7.40;;;21.30;99.90;;;;;;4995586;28;20691;-76
2021/06/27 06:58:27;;;;;;;8.83;7.93;;;21.30;99.90;;;;;;4995605;28;20183;-77
2021/06/27 07:00:53;;;;;;;8.70;7.90;;;21.30;99.90;;;;;;4995474;28;20183;-76
2021/06/27 07:03:19;;;;;;;10.77;9.00;;;21.20;99.90;;;;;;4995308;28;20414;-75
2021/06/27 07:05:44;;;;;;;9.27;8.47;;;21.30;99.90;;;;;;4995232;28;20246;-77
2021/06/27 07:08:10;;;;;;;8.80;7.90;;;21.40;99.90;;;;;;4995508;28;20591;-76
2021/06/27 07:10:35;;;;;;;7.93;7.20;;;21.30;99.90;;;;;;4995334;28;20199;-76
2021/06/27 07:13:01;;;;;;;11.07;6.93;;;21.40;99.90;;;;;;4995027;28;20517;-77
2021/06/27 07:15:27;;;;;;;8.27;7.57;;;21.30;99.90;;;;;;4994886;28;20196;-76
2021/06/27 07:17:53;;;;;;;7.83;7.13;;;21.40;99.90;;;;;;4995122;28;20179;-78
2021/06/27 07:20:18;;;;;;;10.10;7.60;;;21.50;99.90;;;;;;4994637;28;20834;-76
2021/06/27 07:22:44;;;;;;;8.30;7.60;;;21.60;99.90;;;;;;4994626;28;20202;-76
2021/06/27 07:25:10;;;;;;;9.90;8.53;;;21.70;99.90;;;;;;4995050;28;20633;-76
2021/06/27 07:27:36;;;;;;;8.40;7.30;;;21.80;99.90;;;;;;4994999;28;20222;-76
2021/06/27 07:30:07;;;;;;;10.43;8.20;;;22.00;99.90;;;;;;4994802;28;20498;-76
2021/06/27 07:32:32;;;;;;;8.70;7.90;;;22.20;99.90;;;;;;4994973;28;20759;-77
2021/06/27 07:34:58;;;;;;;7.97;7.23;;;22.30;99.90;;;;;;4994534;28;20445;-77
2021/06/27 07:37:24;;;;;;;9.40;7.30;;;22.50;99.90;;;;;;4994909;28;20175;-77
2021/06/27 07:39:49;;;;;;;8.60;7.47;;;22.60;99.90;;;;;;4994822;28;20527;-78
2021/06/27 07:42:15;;;;;;;11.20;7.33;;;22.70;99.90;;;;;;4995068;28;20180;-77
2021/06/27 07:44:41;;;;;;;8.90;7.90;;;22.90;99.90;;;;;;4994641;28;20199;-78
2021/06/27 07:47:06;;;;;;;8.00;7.30;;;23.10;99.90;;;;;;4994880;28;20191;-77
2021/06/27 07:49:32;;;;;;;8.87;7.60;;;23.10;99.90;;;;;;4994940;28;20314;-77
2021/06/27 07:51:58;;;;;;;8.60;7.90;;;23.10;99.90;;;;;;4994121;28;20602;-78
2021/06/27 07:54:24;;;;;;;7.77;6.80;;;23.10;99.90;;;;;;4993590;28;20565;-77
2021/06/27 07:56:49;;;;;;;7.93;6.93;;;23.10;99.90;;;;;;4993158;28;20418;-76
2021/06/27 07:59:15;;;;;;;8.87;7.30;;;23.30;99.90;;;;;;4994319;28;20191;-76
2021/06/27 08:01:41;;;;;;;7.00;6.40;;;23.40;99.90;;;;;;4994837;28;20190;-77
2021/06/27 08:04:07;;;;;;;6.80;6.17;;;23.30;99.90;;;;;;4994025;28;20200;-76
2021/06/27 08:06:32;;;;;;;6.03;5.50;;;23.60;99.90;;;;;;4994544;28;20783;-78
2021/06/27 08:08:58;;;;;;;6.30;5.70;;;24.00;99.90;;;;;;4993125;28;20179;-76
2021/06/27 08:11:23;;;;;;;6.70;6.10;;;24.10;99.90;;;;;;4994494;28;20175;-76
2021/06/27 08:13:49;;;;;;;6.60;6.00;;;24.00;99.90;;;;;;4993805;28;20222;-78
2021/06/27 08:16:15;;;;;;;6.87;6.17;;;24.30;99.90;;;;;;4994174;28;20182;-75
2021/06/27 08:18:40;;;;;;;7.10;6.40;;;24.30;99.90;;;;;;4994119;28;20171;-76
2021/06/27 08:21:06;;;;;;;9.70;7.17;;;24.40;99.90;;;;;;4994106;28;20207;-77
2021/06/27 08:23:32;;;;;;;7.30;5.90;;;24.70;99.90;;;;;;4993744;28;20238;-77
2021/06/27 08:25:57;;;;;;;7.77;6.40;;;24.90;99.90;;;;;;4992736;28;20183;-77
2021/06/27 08:28:23;;;;;;;6.83;6.17;;;25.20;99.90;;;;;;4993937;28;20180;-76
2021/06/27 08:30:49;;;;;;;7.53;6.43;;;25.40;99.90;;;;;;4993824;28;20210;-77
2021/06/27 08:33:14;;;;;;;6.27;5.80;;;25.50;99.90;;;;;;4993742;28;20183;-78
2021/06/27 08:35:40;;;;;;;7.10;6.40;;;25.50;99.90;;;;;;4992733;28;20206;-79
2021/06/27 08:38:08;;;;;;;10.03;5.70;;;25.60;99.90;;;;;;4993813;28;20520;-78
2021/06/27 08:40:35;;;;;;;6.47;5.33;;;25.70;99.90;;;;;;4993850;28;20189;-78
2021/06/27 08:43:08;;;;;;;6.63;6.10;;;26.00;99.90;;;;;;4993471;28;20946;-75
2021/06/27 08:45:47;;;;;;;7.30;6.47;;;25.90;99.90;;;;;;4993890;28;20521;-76
2021/06/27 08:48:15;;;;;;;6.20;5.70;;;26.00;99.90;;;;;;4993880;28;20899;-76
2021/06/27 08:50:41;;;;;;;6.80;6.10;;;26.50;99.90;;;;;;4992413;28;20494;-77
2021/06/27 08:53:08;;;;;;;6.70;6.17;;;26.50;99.90;;;;;;4993727;28;20422;-79
2021/06/27 08:55:34;;;;;;;7.23;6.47;;;26.40;99.90;;;;;;4993931;28;20210;-77
2021/06/27 08:58:01;;;;;;;6.10;5.60;;;26.10;99.90;;;;;;4992677;28;20415;-77
2021/06/27 09:00:27;;;;;;;6.77;5.63;;;26.30;99.90;;;;;;4993794;28;20183;-76
2021/06/27 09:02:52;;;;;;;8.40;6.90;;;26.40;99.90;;;;;;4993294;28;20430;-77
2021/06/27 09:05:19;;;;;;;7.50;6.43;;;26.50;99.90;;;;;;4996569;28;20282;-78
2021/06/27 09:07:45;;;;;;;8.00;6.20;;;26.50;99.90;;;;;;4997234;28;20184;-75
2021/06/27 09:10:17;;;;;;;7.57;6.87;;;26.50;99.90;;;;;;4995888;28;20506;-77
2021/06/27 09:12:57;;;;;;;7.90;7.20;;;26.60;99.90;;;;;;4997189;28;20787;-78
2021/06/27 09:15:34;;;;;;;7.77;6.97;;;26.60;99.90;;;;;;4997155;28;20460;-75
2021/06/27 09:18:08;;;;;;;7.53;6.73;;;26.90;99.90;;;;;;4997649;28;20864;-76
2021/06/27 09:20:35;;;;;;;7.40;6.70;;;27.10;99.90;;;;;;4997416;28;20829;-78
2021/06/27 09:23:01;;;;;;;9.03;6.40;;;27.40;99.90;;;;;;4997348;28;20450;-76
2021/06/27 09:25:30;;;;;;;8.63;7.83;;;27.50;99.90;;;;;;4997369;28;20474;-78
2021/06/27 09:28:11;;;;;;;7.70;6.93;;;27.90;99.90;;;;;;4997286;28;20535;-78
2021/06/27 09:30:52;;;;;;;7.60;6.50;;;27.90;99.90;;;;;;4996751;28;20958;-76
2021/06/27 09:33:21;;;;;;;7.50;6.13;;;28.20;99.90;;;;;;4996944;28;20785;-78
2021/06/27 09:35:55;;;;;;;7.60;6.20;;;28.30;99.90;;;;;;4996861;28;20931;-76
2021/06/27 09:38:25;;;;;;;6.27;5.57;;;28.70;99.90;;;;;;4997112;28;20428;-77
2021/06/27 09:41:03;;;;;;;6.80;6.23;;;28.70;99.90;;;;;;4996907;28;20416;-78
2021/06/27 09:43:31;;;;;;;6.40;5.80;;;28.50;99.90;;;;;;4996651;28;20406;-76
2021/06/27 09:46:11;;;;;;;5.83;5.27;;;29.00;99.90;;;;;;4997089;28;20442;-81
2021/06/27 09:48:53;;;;;;;6.30;5.70;;;29.50;99.90;;;;;;4997147;28;20417;-78
2021/06/27 09:51:20;;;;;;;6.17;5.57;;;29.80;99.90;;;;;;4997057;28;20549;-76
2021/06/27 09:53:47;;;;;;;6.00;5.50;;;29.60;99.90;;;;;;4996559;28;20415;-77
2021/06/27 09:56:13;;;;;;;5.83;5.33;;;29.50;99.90;;;;;;4996751;28;20418;-76
2021/06/27 09:58:39;;;;;;;5.53;5.13;;;29.70;99.90;;;;;;4996811;28;20505;-78
2021/06/27 10:01:26;;;;;;;4.73;4.40;;;29.40;99.90;;;;;;4996603;28;20903;-79
2021/06/27 10:03:54;;;;;;;5.07;4.60;;;29.70;99.90;;;;;;4996170;28;20613;-77
2021/06/27 10:06:28;;;;;;;5.10;4.70;;;29.70;99.90;;;;;;4996787;28;20410;-77
2021/06/27 10:08:55;;;;;;;4.80;4.50;;;29.90;99.90;;;;;;4996681;28;20411;-76
2021/06/27 10:11:23;;;;;;;4.90;4.57;;;30.00;99.90;;;;;;4996659;28;20801;-77
2021/06/27 10:13:53;;;;;;;7.70;4.17;;;30.30;99.90;;;;;;4996008;28;20820;-77
2021/06/27 10:16:31;;;;;;;5.10;4.70;;;30.30;99.90;;;;;;4995579;28;20411;-77
2021/06/27 10:18:58;;;;;;;5.50;5.00;;;30.00;99.90;;;;;;4996000;28;20774;-75
2021/06/27 10:21:25;;;;;;;7.23;5.30;;;30.20;99.90;;;;;;4996282;28;20426;-75
2021/06/27 10:23:53;;;;;;;4.80;4.40;;;30.50;99.90;;;;;;4995741;28;20440;-74
2021/06/27 10:26:20;;;;;;;4.40;4.00;;;30.90;99.90;;;;;;4996184;28;20410;-75
2021/06/27 10:28:49;;;;;;;6.10;5.57;;;31.70;99.90;;;;;;4996094;28;20419;-76
2021/06/27 10:31:17;;;;;;;4.80;4.43;;;31.20;99.90;;;;;;4995861;28;20971;-77
2021/06/27 10:33:45;;;;;;;4.47;4.07;;;31.40;99.90;;;;;;4995681;28;20414;-77
2021/06/27 10:36:13;;;;;;;5.27;4.87;;;31.30;99.90;;;;;;4996121;28;20764;-76
2021/06/27 10:38:45;;;;;;;5.00;4.60;;;31.00;99.90;;;;;;4995993;28;20473;-79
2021/06/27 10:41:11;;;;;;;3.80;3.50;;;31.20;99.90;;;;;;4996074;28;20889;-75
2021/06/27 10:44:06;;;;;;;4.70;4.40;;;31.20;99.90;;;;;;4995316;28;20469;-77
2021/06/27 10:46:35;;;;;;;4.73;4.43;;;31.60;99.90;;;;;;4991239;28;20200;-75
2021/06/27 10:49:01;;;;;;;4.60;4.27;;;31.70;99.90;;;;;;4995696;28;20450;-76
2021/06/27 10:52:05;;;;;;;4.63;3.87;;;31.70;99.90;;;;;;4995550;28;20502;-76
2021/06/27 10:54:35;;;;;;;4.70;4.40;;;31.80;99.90;;;;;;4995441;28;20691;-75
2021/06/27 10:57:04;;;;;;;4.63;4.23;;;32.20;99.90;;;;;;4995874;28;20418;-75
2021/06/27 10:59:38;;;;;;;5.27;4.77;;;32.20;99.90;;;;;;4995770;28;20419;-75
2021/06/27 11:02:20;;;;;;;4.60;4.30;;;31.80;99.90;;;;;;4995894;28;20417;-75
2021/06/27 11:04:48;;;;;;;6.03;4.20;;;32.00;99.90;;;;;;4995317;28;20435;-76
2021/06/27 11:07:32;;;;;;;4.33;3.93;;;32.20;99.90;;;;;;4995392;28;20418;-76
2021/06/27 11:10:20;;;;;;;4.70;4.40;;;33.10;99.90;;;;;;4994155;28;20469;-77
2021/06/27 11:12:57;;;;;;;4.60;4.30;;;33.70;99.90;;;;;;4994954;28;20406;-76
2021/06/27 11:15:25;;;;;;;4.27;3.97;;;34.10;99.90;;;;;;4995119;28;20435;-77
2021/06/27 11:17:52;;;;;;;5.10;4.73;;;34.00;99.90;;;;;;4994744;28;20462;-76
2021/06/27 11:20:18;;;;;;;4.67;4.37;;;33.20;99.90;;;;;;4993397;28;20423;-76
2021/06/27 11:22:47;;;;;;;5.80;5.40;;;33.20;99.90;;;;;;4994547;28;20407;-76
2021/06/27 11:25:38;;;;;;;4.40;4.17;;;32.90;99.90;;;;;;4994532;28;20215;-77
2021/06/27 11:28:18;;;;;;;4.90;4.50;;;32.90;99.90;;;;;;4984214;28;20999;-76
2021/06/27 11:30:45;;;;;;;4.70;4.30;;;32.70;99.90;;;;;;4992278;28;20541;-74
2021/06/27 11:33:19;;;;;;;5.10;4.60;;;32.90;99.90;;;;;;4994161;28;20419;-76
2021/06/27 11:35:51;;;;;;;5.07;4.67;;;32.90;99.90;;;;;;4992332;28;20549;-76
2021/06/27 11:38:36;;;;;;;5.27;4.87;;;33.20;99.90;;;;;;4993869;28;20419;-76
2021/06/27 11:41:06;;;;;;;4.50;4.20;;;33.30;99.90;;;;;;4983853;28;20442;-74
2021/06/27 11:44:08;;;;;;;4.90;4.13;;;33.30;99.90;;;;;;4983660;28;20526;-74
2021/06/27 11:46:41;;;;;;;8.00;3.93;;;33.80;99.90;;;;;;4995339;28;20425;-77
2021/06/27 11:49:13;;;;;;;4.40;4.10;;;33.90;99.90;;;;;;4994191;28;20418;-77
2021/06/27 11:51:50;;;;;;;4.87;4.50;;;33.80;99.90;;;;;;4994287;28;20457;-76
2021/06/27 11:54:34;;;;;;;4.33;4.00;;;34.30;99.90;;;;;;4993075;28;20971;-76
2021/06/27 11:57:00;;;;;;;4.73;4.43;;;34.00;99.90;;;;;;4993288;28;20431;-76
2021/06/27 11:59:29;;;;;;;4.37;4.03;;;33.70;99.90;;;;;;4994672;28;20419;-76
2021/06/27 12:05:01;;;;;;;4.30;3.90;;;33.20;99.90;;;;;;4993528;28;20450;-77
2021/06/27 12:07:36;;;;;;;4.30;3.90;;;32.80;99.90;;;;;;4994297;28;20423;-77
2021/06/27 12:12:51;;;;;;;4.30;4.00;;;32.70;99.90;;;;;;4994210;28;20449;-76
2021/06/27 12:15:17;;;;;;;4.83;4.53;;;32.60;99.90;;;;;;4994169;28;20961;-78
2021/06/27 12:18:09;;;;;;;4.10;3.80;;;32.10;99.90;;;;;;4994304;28;20403;-79
2021/06/27 12:20:45;;;;;;;3.57;3.27;;;32.30;99.90;;;;;;4994325;28;20184;-78
2021/06/27 12:23:14;;;;;;;4.80;3.47;;;32.50;99.90;;;;;;4993902;28;20449;-77
2021/06/27 12:25:43;;;;;;;4.47;3.63;;;32.90;99.90;;;;;;4993937;28;20441;-79
2021/06/27 12:28:15;;;;;;;3.63;3.43;;;33.00;99.90;;;;;;4993944;28;20510;-77
2021/06/27 12:31:27;;;;;;;4.43;4.03;;;33.00;99.90;;;;;;4993770;28;20517;-76
2021/06/27 12:33:55;;;;;;;3.70;3.43;;;32.60;99.90;;;;;;4993376;28;20834;-78
2021/06/27 12:36:37;;;;;;;3.70;3.40;;;32.70;99.90;;;;;;4993810;28;20407;-75
2021/06/27 12:39:23;;;;;;;4.13;3.77;;;33.10;99.90;;;;;;4993254;28;20411;-77
2021/06/27 12:41:49;;;;;;;4.23;3.90;;;33.80;99.90;;;;;;4993760;28;20461;-76
2021/06/27 12:44:16;;;;;;;3.93;3.63;;;33.60;99.90;;;;;;4993126;28;20446;-77
2021/06/27 12:46:42;;;;;;;4.50;4.13;;;33.70;99.90;;;;;;4993910;28;20442;-76
2021/06/27 12:49:15;;;;;;;3.97;3.67;;;33.70;99.90;;;;;;4994187;28;20453;-77
2021/06/27 12:51:42;;;;;;;4.13;3.80;;;34.00;99.90;;;;;;4993748;28;20797;-78
2021/06/27 12:54:23;;;;;;;3.43;3.20;;;34.70;99.90;;;;;;4993204;28;20514;-77